createdAt,value
2022-09-12T00:03:32.082Z,99.90
2022-09-12T00:07:54.176Z,99.90
2022-09-12T00:12:16.017Z,99.90
2022-09-12T00:16:38.301Z,99.90
2022-09-12T00:21:04.825Z,99.90
2022-09-12T00:25:26.658Z,99.90
2022-09-12T00:29:48.238Z,99.90
2022-09-12T00:34:10.968Z,99.90
2022-09-12T00:38:32.713Z,99.90
2022-09-12T00:42:54.707Z,99.90
2022-09-12T00:47:28.015Z,99.90
2022-09-12T00:51:59.854Z,99.90
2022-09-12T00:56:22.571Z,99.90
2022-09-12T01:00:44.531Z,99.90
2022-09-12T01:05:08.252Z,99.90
2022-09-12T01:09:29.906Z,99.90
2022-09-12T01:13:52.136Z,99.90
2022-09-12T01:18:42.038Z,99.90
2022-09-12T01:23:41.027Z,99.90
2022-09-12T01:28:30.618Z,99.90
2022-09-12T01:33:01.387Z,99.90
2022-09-12T01:37:38.886Z,99.90
2022-09-12T01:42:35.099Z,99.90
2022-09-12T01:47:09.460Z,99.90
2022-09-12T01:51:53.358Z,99.90
2022-09-12T01:56:31.124Z,99.90
2022-09-12T02:01:12.917Z,99.90
2022-09-12T02:05:45.068Z,99.90
2022-09-12T02:10:14.733Z,99.90
2022-09-12T02:14:48.421Z,99.90
2022-09-12T02:19:16.467Z,99.90
2022-09-12T02:23:45.229Z,99.90
2022-09-12T02:28:21.791Z,99.90
2022-09-12T02:33:08.346Z,99.90
2022-09-12T02:37:58.223Z,99.90
2022-09-12T02:42:20.240Z,99.90
2022-09-12T02:46:48.063Z,99.90
2022-09-12T02:51:11.878Z,99.90
2022-09-12T02:55:36.389Z,99.90
2022-09-12T03:00:01.282Z,99.90
2022-09-12T03:05:03.382Z,99.90
2022-09-12T03:09:51.489Z,99.90
2022-09-12T03:14:38.826Z,99.90
2022-09-12T03:19:52.317Z,99.90
2022-09-12T03:25:11.538Z,99.90
2022-09-12T03:29:33.835Z,99.90
2022-09-12T03:33:55.559Z,99.90
2022-09-12T03:38:18.186Z,99.90
2022-09-12T03:42:40.098Z,99.90
2022-09-12T03:47:02.033Z,99.90
2022-09-12T03:51:24.136Z,99.90
2022-09-12T03:55:46.044Z,99.90
2022-09-12T04:00:09.107Z,99.90
2022-09-12T04:04:38.129Z,99.90
2022-09-12T04:09:00.853Z,99.90
2022-09-12T04:13:22.354Z,99.90
2022-09-12T04:17:44.205Z,99.90
2022-09-12T04:22:06.478Z,99.90
2022-09-12T04:26:29.892Z,99.90
2022-09-12T04:30:52.294Z,99.90
2022-09-12T04:35:14.169Z,99.90
2022-09-12T04:39:36.192Z,99.90
2022-09-12T04:44:02.516Z,99.90
2022-09-12T04:48:24.504Z,99.90
2022-09-12T04:52:54.577Z,99.90
2022-09-12T04:57:16.591Z,99.90
2022-09-12T05:01:38.410Z,99.90
2022-09-12T05:06:03.707Z,99.90
2022-09-12T05:10:25.282Z,99.90
2022-09-12T05:14:47.641Z,99.90
2022-09-12T05:19:12.492Z,99.90
2022-09-12T05:23:34.340Z,99.90
2022-09-12T05:27:56.845Z,99.90
2022-09-12T05:32:18.646Z,99.90
2022-09-12T05:36:40.314Z,99.90
2022-09-12T05:41:08.497Z,99.90
2022-09-12T05:45:30.751Z,99.90
2022-09-12T05:49:53.034Z,99.90
2022-09-12T05:54:20.447Z,99.90
2022-09-12T05:58:46.298Z,99.90
2022-09-12T06:03:08.439Z,99.90
2022-09-12T06:07:31.254Z,99.90
2022-09-12T06:11:53.134Z,99.90
2022-09-12T06:16:18.060Z,99.90
2022-09-12T06:20:39.942Z,99.90
2022-09-12T06:25:01.837Z,99.90
2022-09-12T06:29:24.140Z,99.90
2022-09-12T06:33:51.962Z,99.90
2022-09-12T06:38:13.597Z,99.90
2022-09-12T06:42:35.496Z,99.90
2022-09-12T06:46:58.792Z,99.90
2022-09-12T06:51:21.012Z,99.90
2022-09-12T06:55:42.916Z,99.90
2022-09-12T07:00:05.949Z,99.90
2022-09-12T07:04:28.180Z,99.90
2022-09-12T07:08:50.204Z,99.90
2022-09-12T07:13:11.839Z,99.90
2022-09-12T07:17:33.826Z,99.90
2022-09-12T07:21:58.688Z,99.90
2022-09-12T07:26:20.419Z,99.90
2022-09-12T07:30:42.203Z,92.90
2022-09-12T07:35:04.473Z,85.50
2022-09-12T07:39:26.183Z,72.90
2022-09-12T07:43:51.163Z,65.30
2022-09-12T07:48:12.897Z,58.70
2022-09-12T07:52:35.137Z,57.20
2022-09-12T07:56:56.874Z,54.80
2022-09-12T08:01:23.373Z,53.10
2022-09-12T08:05:45.264Z,54.70
2022-09-12T08:10:07.511Z,60.40
2022-09-12T08:14:29.875Z,66.60
2022-09-12T08:18:52.430Z,71.40
2022-09-12T08:23:14.017Z,72.30
2022-09-12T08:27:36.349Z,74.80
2022-09-12T08:31:58.351Z,80.40
2022-09-12T08:36:24.398Z,86.00
2022-09-12T08:41:05.283Z,87.80
2022-09-12T08:45:51.981Z,90.50
2022-09-12T08:50:22.534Z,93.50
2022-09-12T08:54:48.265Z,95.00
2022-09-12T08:59:10.639Z,92.80
2022-09-12T09:04:32.507Z,75.30
2022-09-12T09:09:22.051Z,62.10
2022-09-12T09:14:49.258Z,62.10
2022-09-12T09:19:50.796Z,69.00
2022-09-12T09:24:19.061Z,78.90
2022-09-12T09:29:02.833Z,85.60
2022-09-12T09:33:32.573Z,90.10
2022-09-12T09:38:24.580Z,91.60
2022-09-12T09:43:02.018Z,82.10
2022-09-12T09:47:24.152Z,66.50
2022-09-12T09:51:46.971Z,54.70
2022-09-12T09:56:37.121Z,48.10
2022-09-12T10:01:12.283Z,54.10
2022-09-12T10:05:46.095Z,55.70
2022-09-12T10:10:18.764Z,54.50
2022-09-12T10:14:42.480Z,50.50
2022-09-12T10:19:04.763Z,52.70
2022-09-12T10:23:37.229Z,55.30
2022-09-12T10:28:00.883Z,53.90
2022-09-12T10:32:42.526Z,51.00
2022-09-12T10:37:09.418Z,47.10
2022-09-12T10:41:39.793Z,47.10
2022-09-12T10:46:19.801Z,44.70
2022-09-12T10:50:43.331Z,43.60
2022-09-12T10:55:13.937Z,43.40
2022-09-12T11:00:18.162Z,41.00
2022-09-12T11:04:55.497Z,39.80
2022-09-12T11:10:03.016Z,43.20
2022-09-12T11:15:03.198Z,49.40
2022-09-12T11:19:47.344Z,56.50
2022-09-12T11:24:30.658Z,60.10
2022-09-12T11:29:26.986Z,63.80
2022-09-12T11:33:56.703Z,65.20
2022-09-12T11:39:17.384Z,57.10
2022-09-12T11:43:48.379Z,56.00
2022-09-12T11:48:37.543Z,53.60
2022-09-12T11:53:28.286Z,54.50
2022-09-12T11:57:55.351Z,53.50
2022-09-12T12:02:32.736Z,53.30
2022-09-12T12:07:16.132Z,54.70
2022-09-12T12:11:48.970Z,55.60
2022-09-12T12:16:50.289Z,57.40
2022-09-12T12:21:21.722Z,58.70
2022-09-12T12:26:00.018Z,62.50
2022-09-12T12:30:31.420Z,64.60
2022-09-12T12:35:02.645Z,66.70
2022-09-12T12:39:33.733Z,65.80
2022-09-12T12:43:57.655Z,65.30
2022-09-12T12:48:20.527Z,65.60
2022-09-12T12:53:03.669Z,65.90
2022-09-12T12:57:48.902Z,66.90
2022-09-12T13:02:22.983Z,66.10
2022-09-12T13:06:56.168Z,67.10
2022-09-12T13:11:36.919Z,67.10
2022-09-12T13:15:58.949Z,68.00
2022-09-12T13:20:29.491Z,67.30
2022-09-12T13:24:54.785Z,65.70
2022-09-12T13:29:18.784Z,67.40
2022-09-12T13:33:47.594Z,67.60
2022-09-12T13:38:43.264Z,68.80
2022-09-12T13:43:29.411Z,67.30
2022-09-12T13:48:00.124Z,67.10
2022-09-12T13:52:40.253Z,67.10
2022-09-12T13:57:01.956Z,67.30
2022-09-12T14:01:44.847Z,66.30
2022-09-12T14:06:08.544Z,67.20
2022-09-12T14:10:35.770Z,66.50
2022-09-12T14:14:58.128Z,66.40
2022-09-12T14:19:23.478Z,67.50
2022-09-12T14:23:48.161Z,68.70
2022-09-12T14:28:13.768Z,68.10
2022-09-12T14:32:35.987Z,69.30
2022-09-12T14:36:58.821Z,70.60
2022-09-12T14:41:30.964Z,71.20
2022-09-12T14:45:59.914Z,72.80
2022-09-12T14:50:32.016Z,73.70
2022-09-12T14:55:16.597Z,75.30
2022-09-12T14:59:40.828Z,75.40
2022-09-12T15:04:02.927Z,76.20
2022-09-12T15:08:25.851Z,76.20
2022-09-12T15:12:48.064Z,76.30
2022-09-12T15:17:09.579Z,77.20
2022-09-12T15:21:31.507Z,76.80
2022-09-12T15:25:53.856Z,78.40
2022-09-12T15:30:15.659Z,80.20
2022-09-12T15:34:37.779Z,81.90
2022-09-12T15:38:59.748Z,83.70
2022-09-12T15:43:26.353Z,85.00
2022-09-12T15:47:48.319Z,86.50
2022-09-12T15:52:15.877Z,87.80
2022-09-12T15:56:38.348Z,88.50
2022-09-12T16:01:02.328Z,89.30
2022-09-12T16:05:26.688Z,90.90
2022-09-12T16:09:48.681Z,91.70
2022-09-12T16:14:17.188Z,91.80
2022-09-12T16:18:42.178Z,92.50
2022-09-12T16:23:04.070Z,93.20
2022-09-12T16:27:25.764Z,94.00
2022-09-12T16:31:47.806Z,95.70
2022-09-12T16:36:14.667Z,96.90
2022-09-12T16:40:37.437Z,98.00
2022-09-12T16:44:59.460Z,99.30
2022-09-12T16:49:21.892Z,99.90
2022-09-12T16:53:44.491Z,99.90
2022-09-12T16:58:06.455Z,99.90
2022-09-12T17:02:28.304Z,99.90
2022-09-12T17:06:50.291Z,99.90
2022-09-12T17:11:16.492Z,99.90
2022-09-12T17:15:38.703Z,99.90
2022-09-12T17:20:00.579Z,99.90
2022-09-12T17:24:23.287Z,99.90
2022-09-12T17:28:45.623Z,99.90
2022-09-12T17:33:07.789Z,99.90
2022-09-12T17:37:29.423Z,99.90
2022-09-12T17:41:52.009Z,99.90
2022-09-12T17:46:14.841Z,99.90
2022-09-12T17:50:39.564Z,99.90
2022-09-12T17:55:01.603Z,99.90
2022-09-12T17:59:24.881Z,99.90
2022-09-12T18:03:47.295Z,99.90
2022-09-12T18:08:08.915Z,99.90
2022-09-12T18:12:31.090Z,99.90
2022-09-12T18:16:53.010Z,99.90
2022-09-12T18:21:15.056Z,99.90
2022-09-12T18:25:36.545Z,99.90
2022-09-12T18:30:19.598Z,99.90
2022-09-12T18:34:40.398Z,99.90
2022-09-12T18:39:02.429Z,99.90
2022-09-12T18:43:24.276Z,99.90
2022-09-12T18:47:46.272Z,99.90
2022-09-12T18:52:08.294Z,99.90
2022-09-12T18:56:35.222Z,99.90
2022-09-12T19:00:58.591Z,99.90
2022-09-12T19:05:20.537Z,99.90
2022-09-12T19:09:42.724Z,99.90
2022-09-12T19:14:04.611Z,99.90
2022-09-12T19:18:26.585Z,99.90
2022-09-12T19:22:48.732Z,99.90
2022-09-12T19:27:13.041Z,99.90
2022-09-12T19:31:34.944Z,99.90
2022-09-12T19:36:00.292Z,99.90
2022-09-12T19:40:22.186Z,99.90
2022-09-12T19:44:43.990Z,99.90
2022-09-12T19:49:06.093Z,99.90
2022-09-12T19:53:28.631Z,99.90
2022-09-12T19:57:50.549Z,99.90
2022-09-12T20:02:12.539Z,99.90
2022-09-12T20:06:35.043Z,99.90
2022-09-12T20:10:57.380Z,99.90
2022-09-12T20:15:19.779Z,99.90
2022-09-12T20:19:42.009Z,99.90
2022-09-12T20:24:12.843Z,99.90
2022-09-12T20:28:37.278Z,99.90
2022-09-12T20:32:59.762Z,99.90
2022-09-12T20:37:22.389Z,99.90
2022-09-12T20:41:45.402Z,99.90
2022-09-12T20:46:12.164Z,99.90
2022-09-12T20:50:34.422Z,99.90
2022-09-12T20:54:56.468Z,99.90
2022-09-12T20:59:18.807Z,99.90
2022-09-12T21:03:42.679Z,99.90
2022-09-12T21:09:01.299Z,99.90
2022-09-12T21:13:23.779Z,99.90
2022-09-12T21:17:45.840Z,99.90
2022-09-12T21:22:08.080Z,99.90
2022-09-12T21:26:30.499Z,99.90
2022-09-12T21:30:52.837Z,99.90
2022-09-12T21:35:15.162Z,99.90
2022-09-12T21:39:37.299Z,99.90
2022-09-12T21:43:59.760Z,99.90
2022-09-12T21:48:22.639Z,99.90
2022-09-12T21:52:45.439Z,99.90
2022-09-12T21:57:07.720Z,99.90
2022-09-12T22:01:30.198Z,99.90
2022-09-12T22:06:00.420Z,99.90
2022-09-12T22:10:24.121Z,99.90
2022-09-12T22:14:49.282Z,99.90
2022-09-12T22:19:13.030Z,99.90
2022-09-12T22:23:54.016Z,99.90
2022-09-12T22:28:16.486Z,99.90
2022-09-12T22:32:38.585Z,99.90
2022-09-12T22:37:01.547Z,99.90
2022-09-12T22:41:24.546Z,99.90
2022-09-12T22:45:46.905Z,99.90
2022-09-12T22:50:09.325Z,99.90
2022-09-12T22:54:31.845Z,99.90
2022-09-12T22:58:54.521Z,99.90
2022-09-12T23:03:20.997Z,99.90
2022-09-12T23:07:43.466Z,99.90
2022-09-12T23:12:05.885Z,99.90
2022-09-12T23:16:31.389Z,99.90
2022-09-12T23:21:07.887Z,99.90
2022-09-12T23:25:30.026Z,99.90
2022-09-12T23:29:52.646Z,99.90
2022-09-12T23:34:15.286Z,99.90
2022-09-12T23:38:37.445Z,99.90
2022-09-12T23:43:00.052Z,99.90
2022-09-12T23:47:22.285Z,99.90
2022-09-12T23:51:45.045Z,99.90
2022-09-12T23:56:07.785Z,99.90
